Arcadia, Missouri
Current Conditions -  °F | °C
As of 11:35 AM on Friday 24 Oct 2014 (Local Time) from KFAM Reporting Station
Clear Clear  
Wind Chill: 18°   Ceiling: Unl
Heat Index: 18°   Visibility: 10mi
Dew Point: 12°   Wind: 0mph
Humidity: 68%   Direction: NA
Pressure: 30.15"   Gusts: NA
Location:  37.59°N, 90.63°W
Report Text: KFAM 241635Z AUTO 00000KT 10SM CLR 18/12 A3015 RMK AO1
Loading
Personal Weather Stations






























Interactive Weather Map
Tropical Storm Tracking
New forecast layout! Learn more

10-Day Weather Forecast

Advertisements
Track Severe Weather on mobile